Paige, Texas
Current Conditions -  °F | °C
As of 8:15 AM on Thursday 18 Dec 2014 (Local Time) from KGYB Reporting Station
Moderate Fog Moderate Fog  
Wind Chill: 48°   Ceiling: 100
Heat Index: 49°   Visibility: 0.25mi
Dew Point: 49°   Wind: 5mph
Humidity: 99%   Direction: 360°N
Pressure: 30.15"   Gusts: NA
Location:  30.21°N, 97.12°W
Report Text: KGYB 181415Z AUTO 36004KT 1/4SM FG OVC001 10/10 A3015 RMK AO2 T00970095
Loading
Personal Weather Stations






























Interactive Weather Map New forecast layout! Learn more

10-Day Weather Forecast

Advertisements
Track Severe Weather on mobile